Main page
METAR-TAF:

METAR-TAF

Airports :

Bahawalpur Airport

Bahawalpur, Pakistan

latitude: 29-20-53N, longitude: 71-43-04E, elevation: 119 m

METAR: missing

Time: 08:35 (03:35 UTC)

Forecast

The report was made 5 hours and 50 minutes ago, at 21:45 UTC
Forecast valid from 01 at 00 UTC to 01 at 18 UTC
Wind 5 kt from the Southeast
Visibility: 4000 m
Few clouds at a height of 10000 ft
haze
Probability 30% :
Temporary
from 01 at 01 UTC to 01 at 04 UTC
Wind kt from the North
Visibility: 2000 m
mist

TAF: OPBW 282145Z 0100/0118 13005KT 4000 HZ FEW100 TN13/0101Z TX29/0110Z PROB30 TEMPO 0101/0104 00000KT 2000 BR NSC

Weather observations and forecasts of more than 4000 airports (METAR and TAF reports).

The available stations are represented by yellow and red dots on the map.

Hover mouse over dot to see the name of the station.

Then click to see weather observations and forecasts.

To change the map : click on the green buttons with a black cross to zoom in, on the green button with a dash to zoom out, or on the green arrows for adjacent maps.


METAR-TAF: